createdAt,value
2019-02-24T18:37:34.152Z,11.4
2019-02-24T18:38:34.088Z,11.1
2019-02-24T18:39:34.099Z,10.6
2019-02-24T18:40:34.115Z,10.3
2019-02-24T18:41:34.152Z,9.9
2019-02-24T18:42:34.571Z,9.5
2019-02-24T18:43:34.238Z,9.3
2019-02-24T18:44:34.100Z,8.9
2019-02-24T18:45:34.139Z,8.5
2019-02-24T18:46:34.137Z,8.4
2019-02-24T18:47:34.091Z,8.4
2019-02-24T18:48:34.112Z,8.5
2019-02-24T18:49:34.082Z,8.8
2019-02-24T18:50:34.146Z,9
2019-02-24T18:51:34.145Z,9.1
2019-02-24T18:52:34.119Z,9.3
2019-02-24T18:53:34.143Z,9.6
2019-02-24T18:54:34.821Z,9.7
2019-02-24T18:55:34.167Z,9.8
2019-02-24T18:56:34.129Z,9.8
2019-02-24T18:57:34.183Z,9.9
2019-02-24T18:58:34.150Z,10
2019-02-24T18:59:34.106Z,10.1
2019-02-24T19:00:34.104Z,10.3
2019-02-24T19:01:34.180Z,10.5
2019-02-24T19:02:34.121Z,10.5
2019-02-24T19:03:34.110Z,10.5
2019-02-24T19:04:34.098Z,10.5
2019-02-24T19:05:34.101Z,10.5
2019-02-24T19:06:39.057Z,10.6
2019-02-24T19:07:34.100Z,10.7
2019-02-24T19:08:34.117Z,10.8
2019-02-24T19:09:36.210Z,11
2019-02-24T19:10:35.660Z,11.3
2019-02-24T19:11:36.174Z,11.1
2019-02-24T19:12:36.228Z,10.8
2019-02-24T19:13:36.268Z,10.2
2019-02-24T19:14:34.881Z,9.4
2019-02-24T19:15:34.575Z,8.8
2019-02-24T19:16:34.385Z,8.2
2019-02-24T19:17:34.709Z,7.5
2019-02-24T19:18:34.184Z,7
2019-02-24T19:19:34.145Z,6.5
2019-02-24T19:20:34.180Z,6.2
2019-02-24T19:21:34.173Z,6
2019-02-24T19:22:34.240Z,5.8
2019-02-24T19:23:34.178Z,5.7
2019-02-24T19:24:34.218Z,5.4
2019-02-24T19:25:34.130Z,5
2019-02-24T19:26:34.192Z,4.9
2019-02-24T19:27:34.243Z,4.8
2019-02-24T19:28:34.148Z,4.8
2019-02-24T19:29:34.343Z,5
2019-02-24T19:30:34.138Z,5.3
2019-02-24T19:31:34.143Z,5.8
2019-02-24T19:32:34.179Z,6.3
2019-02-24T19:33:34.144Z,6.5
2019-02-24T19:34:34.230Z,6.7
2019-02-24T19:35:34.130Z,7
2019-02-24T19:36:34.144Z,7.3
2019-02-24T19:37:34.172Z,7.4
2019-02-24T19:38:34.208Z,7.4
2019-02-24T19:39:34.272Z,7.3
2019-02-24T19:40:34.259Z,7.1
2019-02-24T19:41:34.144Z,7.1
2019-02-24T19:42:34.147Z,7
2019-02-24T19:43:34.142Z,7
2019-02-24T19:44:34.184Z,7
2019-02-24T19:45:34.266Z,7
2019-02-24T19:46:34.241Z,7.2
2019-02-24T19:47:34.135Z,7.3
2019-02-24T19:48:41.711Z,7.3
2019-02-24T19:49:36.532Z,7.4
2019-02-24T19:50:34.117Z,7.5
2019-02-24T19:51:34.273Z,7.4
2019-02-24T19:52:34.200Z,7.5
2019-02-24T19:53:34.180Z,7.4
2019-02-24T19:54:34.246Z,7.2
2019-02-24T19:55:34.373Z,7
2019-02-24T19:56:34.109Z,6.7
2019-02-24T19:57:34.123Z,6.6
2019-02-24T19:58:34.175Z,6.5
2019-02-24T19:59:34.102Z,6.4
2019-02-24T20:00:34.214Z,6.5
2019-02-24T20:01:34.189Z,6.6
2019-02-24T20:02:34.252Z,6.4
2019-02-24T20:03:34.134Z,6.5
2019-02-24T20:04:34.148Z,6.5
2019-02-24T20:05:34.338Z,6.3
2019-02-24T20:06:34.242Z,6.3
2019-02-24T20:07:34.168Z,6.1
2019-02-24T20:08:34.114Z,5.9
2019-02-24T20:09:34.193Z,5.8
2019-02-24T20:10:34.108Z,5.8
2019-02-24T20:11:34.116Z,5.7
2019-02-24T20:12:34.125Z,5.6
2019-02-24T20:13:34.161Z,5.7
2019-02-24T20:14:34.104Z,6
2019-02-24T20:15:35.769Z,6
2019-02-24T20:16:34.076Z,5.9
2019-02-24T20:17:34.107Z,6.1
2019-02-24T20:18:34.137Z,6
2019-02-24T20:19:34.125Z,5.9
2019-02-24T20:20:34.115Z,6
2019-02-24T20:21:34.170Z,6.1
2019-02-24T20:22:34.156Z,6.1
2019-02-24T20:23:34.134Z,6.2
2019-02-24T20:24:34.103Z,6
2019-02-24T20:25:34.830Z,5.9
2019-02-24T20:26:34.098Z,6
2019-02-24T20:27:34.141Z,6.1
2019-02-24T20:28:34.083Z,6.4
2019-02-24T20:29:36.459Z,6.8
2019-02-24T20:30:34.623Z,7
2019-02-24T20:31:34.582Z,7
2019-02-24T20:32:35.188Z,7
2019-02-24T20:33:35.607Z,7
2019-02-24T20:34:34.986Z,7
2019-02-24T20:35:34.160Z,7.1
2019-02-24T20:36:34.123Z,7.1
2019-02-24T20:37:34.144Z,7.3
2019-02-24T20:38:34.115Z,7.5
2019-02-24T20:39:34.193Z,7.6
2019-02-24T20:40:34.101Z,7.6
2019-02-24T20:41:34.126Z,7.5
2019-02-24T20:42:34.135Z,7.3
2019-02-24T20:43:34.086Z,7.1
2019-02-24T20:44:34.188Z,7.1
2019-02-24T20:45:34.121Z,7.1
2019-02-24T20:46:34.170Z,7.2
2019-02-24T20:47:34.106Z,7.3
2019-02-24T20:48:34.095Z,7.3
2019-02-24T20:49:34.088Z,6.8
2019-02-24T20:50:34.137Z,6.1
2019-02-24T20:51:34.177Z,5.6
2019-02-24T20:52:34.108Z,5.5
2019-02-24T20:53:34.188Z,5.5
2019-02-24T20:54:34.159Z,5.4
2019-02-24T20:55:34.127Z,4.9
2019-02-24T20:56:34.191Z,4.6
2019-02-24T20:57:34.095Z,4.6
2019-02-24T20:58:34.180Z,4.7
2019-02-24T20:59:36.980Z,4.7
2019-02-24T21:00:34.166Z,4.9
2019-02-24T21:01:34.131Z,5.1
2019-02-24T21:02:34.135Z,5.2
2019-02-24T21:03:34.490Z,5.3
2019-02-24T21:04:35.365Z,5.6
2019-02-24T21:05:35.169Z,6
2019-02-24T21:06:34.114Z,6.4
2019-02-24T21:07:34.283Z,6.8
2019-02-24T21:08:35.639Z,7.3
2019-02-24T21:09:35.020Z,7.9
2019-02-24T21:10:34.785Z,8.5
2019-02-24T21:11:37.605Z,8.9
2019-02-24T21:12:34.249Z,9.3
2019-02-24T21:13:34.147Z,9.7
2019-02-24T21:14:34.671Z,9.9
2019-02-24T21:15:34.323Z,10.1
2019-02-24T21:16:34.417Z,10.3
2019-02-24T21:17:34.995Z,10.2
2019-02-24T21:18:34.107Z,10.4
2019-02-24T21:19:34.606Z,10.2
2019-02-24T21:20:34.399Z,10
2019-02-24T21:21:34.081Z,9.9
2019-02-24T21:22:34.499Z,9.8
2019-02-24T21:23:34.257Z,9.8
2019-02-24T21:24:34.245Z,9.8
2019-02-24T21:25:34.497Z,9.6
2019-02-24T21:26:34.147Z,9.2
2019-02-24T21:27:34.315Z,8.8
2019-02-24T21:28:34.275Z,8.4
2019-02-24T21:29:34.647Z,8.1
2019-02-24T21:30:34.613Z,7.6
2019-02-24T21:31:34.908Z,7.2
2019-02-24T21:32:34.641Z,7
2019-02-24T21:33:34.157Z,7.2
2019-02-24T21:34:34.093Z,7.5
2019-02-24T21:35:34.795Z,7.9
2019-02-24T21:36:34.515Z,7.9
2019-02-24T21:38:38.261Z,0.6
2019-02-24T21:39:38.235Z,1
2019-02-24T21:40:38.273Z,1.3
2019-02-24T21:41:37.734Z,1.7
2019-02-24T21:42:38.277Z,2.2
2019-02-24T21:43:39.698Z,2.7
2019-02-24T21:44:38.439Z,3
2019-02-24T21:45:37.719Z,3.4
2019-02-24T21:46:37.738Z,3.8
2019-02-24T21:47:38.279Z,4
2019-02-24T21:48:38.345Z,4.4
2019-02-24T21:49:38.212Z,4.6
2019-02-24T21:50:38.020Z,4.9
2019-02-24T21:51:37.859Z,5.2
2019-02-24T21:52:38.365Z,5.2
2019-02-24T21:53:38.245Z,5.3
2019-02-24T21:54:37.777Z,5.2
2019-02-24T21:55:38.376Z,5.1
2019-02-24T21:56:37.741Z,4.9
2019-02-24T21:57:37.708Z,4.8
2019-02-24T21:58:39.977Z,4.9
2019-02-24T21:59:38.043Z,4.9
2019-02-24T22:00:38.138Z,5
2019-02-24T22:01:38.281Z,5
2019-02-24T22:02:38.005Z,4.7
2019-02-24T22:03:38.304Z,4.7
2019-02-24T22:04:37.696Z,5.2
2019-02-24T22:05:37.737Z,5.5
2019-02-24T22:06:37.704Z,5.6
2019-02-24T22:07:37.732Z,5.5
2019-02-24T22:08:37.796Z,5.2
2019-02-24T22:09:37.729Z,5
2019-02-24T22:10:37.708Z,5.1
2019-02-24T22:11:37.710Z,5.1
2019-02-24T22:12:37.701Z,4.9
2019-02-24T22:13:37.762Z,4.9
2019-02-24T22:14:37.763Z,4.9
2019-02-24T22:15:37.781Z,5.1
2019-02-24T22:16:37.723Z,5.5
2019-02-24T22:17:37.701Z,5.8
2019-02-24T22:18:37.884Z,6.2
2019-02-24T22:19:37.695Z,6.6
2019-02-24T22:20:37.754Z,6.8
2019-02-24T22:21:37.723Z,7.1
2019-02-24T22:22:37.715Z,7.4
2019-02-24T22:23:37.757Z,7.7
2019-02-24T22:24:37.721Z,8
2019-02-24T22:25:37.805Z,8.1
2019-02-24T22:26:37.687Z,8.2
2019-02-24T22:27:37.724Z,8.3
2019-02-24T22:28:37.719Z,8.3
2019-02-24T22:29:37.723Z,8.3
2019-02-24T22:30:37.770Z,8.3
2019-02-24T22:31:37.704Z,8.4
2019-02-24T22:32:37.680Z,8.8
2019-02-24T22:33:37.697Z,9.1
2019-02-24T22:34:37.716Z,9.3
2019-02-24T22:35:37.834Z,9.2
2019-02-24T22:36:37.692Z,9.2
2019-02-24T22:37:37.771Z,9.1
2019-02-24T22:38:37.747Z,9
2019-02-24T22:39:37.689Z,9.1
2019-02-24T22:40:37.694Z,9.1
2019-02-24T22:41:37.716Z,9.2
2019-02-24T22:42:37.722Z,9.5
2019-02-24T22:43:37.744Z,9.8
2019-02-24T22:44:37.765Z,10.1
2019-02-24T22:45:37.760Z,10.3
2019-02-24T22:46:37.711Z,10.2
2019-02-24T22:47:37.716Z,10
2019-02-24T22:48:37.664Z,9.7
2019-02-24T22:49:37.756Z,9.3
2019-02-24T22:50:37.722Z,8.8
2019-02-24T22:51:37.765Z,8.4
2019-02-24T22:52:37.682Z,8
2019-02-24T22:53:37.770Z,7.7
2019-02-24T22:54:37.692Z,7.3
2019-02-24T22:55:37.706Z,7.1
2019-02-24T22:56:37.702Z,6.9
2019-02-24T22:57:37.714Z,6.7
2019-02-24T22:58:37.779Z,6.6
2019-02-24T22:59:37.714Z,6.4
2019-02-24T23:00:37.691Z,6.1
2019-02-24T23:01:37.682Z,6
2019-02-24T23:02:37.675Z,6.1
2019-02-24T23:03:37.786Z,6
2019-02-24T23:04:37.675Z,5.8
2019-02-24T23:05:37.705Z,5.7
2019-02-24T23:06:37.714Z,5.6
2019-02-24T23:07:37.681Z,5.6
2019-02-24T23:08:37.769Z,5.4
2019-02-24T23:09:37.711Z,5.4
2019-02-24T23:10:37.711Z,5.4
2019-02-24T23:11:37.681Z,5.3
2019-02-24T23:12:37.777Z,5.3
2019-02-24T23:13:39.296Z,5.3
2019-02-24T23:14:37.700Z,5.4
2019-02-24T23:15:37.666Z,5.5
2019-02-24T23:16:37.653Z,5.7
2019-02-24T23:17:37.674Z,6.2
2019-02-24T23:18:37.771Z,6.5
2019-02-24T23:19:37.696Z,6.7
2019-02-24T23:20:37.741Z,6.7
2019-02-24T23:21:37.663Z,6.4
2019-02-24T23:22:37.671Z,5.9
2019-02-24T23:23:37.762Z,5.7
2019-02-24T23:24:37.701Z,5.6
2019-02-24T23:25:37.672Z,5.7
2019-02-24T23:26:37.658Z,6
2019-02-24T23:27:37.702Z,6.4
2019-02-24T23:28:37.740Z,6.9
2019-02-24T23:29:37.695Z,7.4
2019-02-24T23:30:37.759Z,7.9
2019-02-24T23:31:37.662Z,8.3
2019-02-24T23:32:37.654Z,8.9
2019-02-24T23:33:37.718Z,9.5
2019-02-24T23:34:37.693Z,10.1
2019-02-24T23:35:37.662Z,10.9
2019-02-24T23:36:37.759Z,11.7
2019-02-24T23:37:37.673Z,12.6
2019-02-24T23:38:37.668Z,13.2
2019-02-24T23:39:37.689Z,13.6
2019-02-24T23:40:37.690Z,13.5
2019-02-24T23:41:37.739Z,13.8
2019-02-24T23:42:37.687Z,14
2019-02-24T23:43:37.652Z,14.1
2019-02-24T23:44:37.693Z,13.8
2019-02-24T23:45:37.693Z,13
2019-02-24T23:46:37.729Z,11.9
2019-02-24T23:47:37.664Z,11.1
2019-02-24T23:48:37.647Z,10.5
2019-02-24T23:49:37.733Z,10
2019-02-24T23:50:37.690Z,9.5
2019-02-24T23:51:37.662Z,9
2019-02-24T23:52:37.681Z,8.6
2019-02-24T23:53:37.709Z,8.1
2019-02-24T23:54:37.650Z,7.6
2019-02-24T23:55:37.728Z,7.2
2019-02-24T23:56:37.657Z,6.9
2019-02-24T23:57:37.705Z,6.7
2019-02-24T23:58:37.659Z,6.5
2019-02-24T23:59:37.646Z,6.2
